Time;durP1;ratioP1;P1;durP2;ratioP2;P2;SDS_P1;SDS_P2;PMS_P1;PMS_P2;Temp;Humidity;BMP_temperature;BMP_pressure;BME280_temperature;BME280_humidity;BME280_pressure;Samples;Min_cycle;Max_cycle;Signal;HPM_P1;HPM_P2
2023/12/03 00:00:13;;;;;;;9.63;2.22;;;;;;;14.53;59.06;98392.00;4943527;28;20027;-93
2023/12/03 00:02:38;;;;;;;10.65;2.50;;;;;;;14.46;59.26;98400.56;4942684;28;20027;-92
2023/12/03 00:05:04;;;;;;;7.97;2.13;;;;;;;14.50;59.48;98417.00;4943165;28;20030;-93
2023/12/03 00:07:30;;;;;;;13.48;3.45;;;;;;;14.43;59.79;98411.25;4960198;28;20023;-92
2023/12/03 00:09:56;;;;;;;9.10;2.40;;;;;;;14.27;60.02;98397.38;4943795;28;20102;-93
2023/12/03 00:12:21;;;;;;;18.95;3.00;;;;;;;14.31;60.41;98404.53;4943386;28;20023;-92
2023/12/03 00:14:47;;;;;;;13.38;2.67;;;;;;;14.21;60.70;98406.75;4942546;28;20026;-93
2023/12/03 00:17:12;;;;;;;13.80;2.75;;;;;;;14.17;60.88;98403.88;4943021;28;20117;-92
2023/12/03 00:19:39;;;;;;;8.75;2.90;;;;;;;14.04;61.47;98399.41;4943836;28;20050;-94
2023/12/03 00:22:04;;;;;;;7.90;2.13;;;;;;;13.98;61.36;98396.03;4943227;28;20113;-94
2023/12/03 00:24:30;;;;;;;10.43;2.92;;;;;;;14.00;61.67;98411.97;4942309;28;20046;-93
2023/12/03 00:26:56;;;;;;;14.30;2.28;;;;;;;13.91;61.93;98412.75;4958798;28;20027;-91
2023/12/03 00:29:21;;;;;;;4.47;1.85;;;;;;;13.97;61.80;98421.53;4942710;28;20481;-92
2023/12/03 00:31:47;;;;;;;10.50;2.22;;;;;;;13.89;61.95;98414.97;4942234;28;20027;-93
2023/12/03 00:34:12;;;;;;;11.77;2.15;;;;;;;13.89;61.99;98423.09;4959031;28;20047;-94
2023/12/03 00:36:38;;;;;;;13.48;2.47;;;;;;;13.93;61.49;98415.16;4942422;28;20031;-93
2023/12/03 00:39:04;;;;;;;11.30;2.50;;;;;;;13.94;61.58;98412.13;4958655;28;20026;-94
2023/12/03 00:41:30;;;;;;;15.30;2.35;;;;;;;13.94;61.50;98419.44;4959493;28;20488;-93
2023/12/03 00:43:55;;;;;;;10.80;2.60;;;;;;;13.88;61.61;98413.38;4959063;28;20019;-94
2023/12/03 00:46:21;;;;;;;13.00;2.45;;;;;;;13.98;61.19;98431.22;4941787;28;20023;-92
2023/12/03 00:48:47;;;;;;;16.73;2.47;;;;;;;13.88;61.22;98418.81;4942192;28;20545;-93
2023/12/03 00:51:13;;;;;;;7.13;2.00;;;;;;;14.06;61.26;98444.00;4942145;28;20161;-92
2023/12/03 00:53:40;;;;;;;8.85;2.05;;;;;;;13.95;61.19;98429.16;4974150;28;20106;-93
2023/12/03 00:56:06;;;;;;;9.52;2.40;;;;;;;13.83;61.46;98418.13;4942314;28;20031;-93
2023/12/03 00:58:32;;;;;;;10.68;2.22;;;;;;;13.90;61.67;98432.81;4958158;28;20089;-94
2023/12/03 01:00:57;;;;;;;10.70;2.60;;;;;;;13.89;61.59;98438.53;4957973;28;20038;-93
2023/12/03 01:03:23;;;;;;;8.85;2.25;;;;;;;13.80;61.94;98435.81;4958512;28;20397;-94
2023/12/03 01:05:48;;;;;;;9.05;2.22;;;;;;;13.78;61.73;98439.91;4942411;28;20056;-92
2023/12/03 01:08:14;;;;;;;11.75;2.25;;;;;;;13.72;62.02;98429.25;4943342;28;20114;-92
2023/12/03 01:10:39;;;;;;;8.20;2.10;;;;;;;13.84;61.84;98453.00;4945046;28;20034;-93
2023/12/03 01:13:05;;;;;;;9.20;2.28;;;;;;;13.83;62.08;98448.69;4944753;28;20026;-93
2023/12/03 01:15:31;;;;;;;9.65;2.03;;;;;;;13.83;61.82;98450.59;4944801;28;20090;-93
2023/12/03 01:17:56;;;;;;;13.40;2.38;;;;;;;13.93;62.03;98467.34;4945446;28;20109;-94
2023/12/03 01:20:22;;;;;;;9.63;1.85;;;;;;;13.94;61.97;98468.97;4945358;28;20031;-92
2023/12/03 01:22:47;;;;;;;9.25;2.97;;;;;;;13.95;61.78;98465.13;4944807;28;20027;-93
2023/12/03 01:25:13;;;;;;;14.65;2.75;;;;;;;13.87;61.64;98441.53;4960590;28;20086;-92
2023/12/03 01:27:39;;;;;;;14.85;2.47;;;;;;;13.86;61.57;98429.16;4944505;28;20086;-93
2023/12/03 01:30:05;;;;;;;9.27;2.13;;;;;;;14.07;61.45;98463.72;4944765;28;20412;-92
2023/12/03 01:32:30;;;;;;;8.90;2.40;;;;;;;14.09;61.35;98461.50;4960595;28;20038;-92
2023/12/03 01:34:56;;;;;;;10.32;1.88;;;;;;;14.17;61.22;98468.84;4944236;28;20051;-92
2023/12/03 01:37:21;;;;;;;8.00;2.40;;;;;;;14.14;61.07;98459.47;4961236;28;20027;-92
2023/12/03 01:39:47;;;;;;;11.45;2.83;;;;;;;14.15;60.94;98469.19;4961006;28;20093;-92
2023/12/03 01:42:13;;;;;;;6.25;1.88;;;;;;;14.17;60.80;98460.72;4944668;28;20023;-94
2023/12/03 01:44:38;;;;;;;5.47;1.70;;;;;;;14.19;60.65;98463.13;4944664;28;20105;-94
2023/12/03 01:47:04;;;;;;;9.25;2.72;;;;;;;14.11;60.78;98451.97;4961237;28;20019;-93
2023/12/03 01:49:30;;;;;;;14.48;2.53;;;;;;;14.19;60.62;98477.47;4945198;28;20038;-94
2023/12/03 01:51:56;;;;;;;9.60;2.20;;;;;;;14.13;60.69;98460.59;4944655;28;20027;-94
2023/12/03 01:54:23;;;;;;;9.40;1.80;;;;;;;14.23;60.70;98477.63;4960436;28;20030;-93
2023/12/03 01:56:49;;;;;;;7.78;2.00;;;;;;;14.12;60.79;98453.56;4960536;28;20034;-94
2023/12/03 01:59:15;;;;;;;12.45;2.53;;;;;;;14.09;61.08;98454.22;4960873;28;20058;-93
2023/12/03 02:01:40;;;;;;;10.88;1.98;;;;;;;14.09;60.66;98451.50;4945012;28;20527;-94
2023/12/03 02:04:06;;;;;;;10.82;1.95;;;;;;;14.04;61.07;98446.22;4944787;28;20097;-94
2023/12/03 02:06:31;;;;;;;11.27;2.13;;;;;;;14.12;61.24;98477.13;4944984;28;20073;-95
2023/12/03 02:08:57;;;;;;;10.75;2.20;;;;;;;14.02;61.47;98478.22;4944395;28;20405;-93
2023/12/03 02:11:23;;;;;;;12.15;2.70;;;;;;;14.04;61.31;98484.09;4946852;28;20037;-94
2023/12/03 02:13:48;;;;;;;14.00;2.10;;;;;;;14.03;61.69;98462.75;4945560;28;20094;-92
2023/12/03 02:16:14;;;;;;;12.57;2.40;;;;;;;13.95;61.91;98473.25;4945402;28;20102;-93
2023/12/03 02:18:40;;;;;;;11.55;2.30;;;;;;;13.90;61.98;98473.41;4945898;28;20118;-92
2023/12/03 02:21:07;;;;;;;6.88;1.88;;;;;;;13.93;62.00;98480.88;4977747;28;20097;-94
2023/12/03 02:23:33;;;;;;;9.18;2.20;;;;;;;13.86;62.27;98468.91;4944398;28;20537;-94
2023/12/03 02:25:58;;;;;;;14.70;2.50;;;;;;;13.83;62.30;98477.66;4945603;28;20026;-94
2023/12/03 02:28:24;;;;;;;14.57;2.40;;;;;;;13.84;62.47;98495.47;4945550;28;20130;-92
2023/12/03 02:30:50;;;;;;;15.90;2.65;;;;;;;13.91;62.57;98514.78;4961753;28;20093;-92
2023/12/03 02:33:17;;;;;;;12.23;2.58;;;;;;;13.90;62.20;98532.94;4945487;28;20055;-93
2023/12/03 02:35:42;;;;;;;15.50;3.35;;;;;;;13.87;61.68;98511.13;4945306;28;20038;-93
2023/12/03 02:38:08;;;;;;;9.93;3.42;;;;;;;13.90;61.41;98522.13;4945360;28;20078;-93
2023/12/03 02:40:37;;;;;;;14.00;3.25;;;;;;;13.98;61.31;98520.53;4945019;28;20038;-92
2023/12/03 02:43:02;;;;;;;14.73;4.00;;;;;;;14.01;61.28;98535.34;4944985;28;20033;-93
2023/12/03 02:45:28;;;;;;;14.75;3.70;;;;;;;13.83;60.21;98515.53;4944990;28;20026;-94
2023/12/03 02:47:53;;;;;;;12.85;3.60;;;;;;;13.95;60.13;98532.81;4945106;28;20019;-92
2023/12/03 02:50:19;;;;;;;15.93;3.80;;;;;;;13.98;60.16;98539.50;4960705;28;20522;-92
2023/12/03 02:52:44;;;;;;;8.77;2.60;;;;;;;14.08;59.76;98557.38;4944428;28;20049;-92
2023/12/03 02:55:10;;;;;;;10.93;2.40;;;;;;;14.04;55.70;98551.00;4943512;28;20026;-94
2023/12/03 02:57:36;;;;;;;8.43;2.60;;;;;;;13.99;52.18;98543.81;4943717;28;20031;-93
2023/12/03 03:00:03;;;;;;;9.57;2.50;;;;;;;13.99;50.35;98549.22;4944483;28;20040;-93
2023/12/03 03:02:28;;;;;;;9.68;2.33;;;;;;;14.05;50.50;98564.22;4943991;28;20122;-93
2023/12/03 03:04:54;;;;;;;8.60;2.20;;;;;;;13.98;49.03;98549.53;4943631;28;20069;-95
2023/12/03 03:07:19;;;;;;;13.45;2.60;;;;;;;14.08;47.61;98566.28;4943664;28;20604;-94
2023/12/03 03:09:45;;;;;;;8.98;2.55;;;;;;;14.15;46.98;98576.66;4943627;28;20058;-93
2023/12/03 03:12:11;;;;;;;7.30;2.50;;;;;;;14.04;46.84;98559.91;4943228;28;20033;-93
2023/12/03 03:14:36;;;;;;;7.13;2.53;;;;;;;14.11;46.16;98570.28;4943492;28;20062;-93
2023/12/03 03:17:02;;;;;;;12.18;3.40;;;;;;;14.08;46.53;98562.78;4943352;28;20106;-93
2023/12/03 03:19:27;;;;;;;9.95;3.10;;;;;;;14.12;45.96;98569.19;4943481;28;20185;-94
2023/12/03 03:21:53;;;;;;;11.55;3.72;;;;;;;14.04;45.99;98570.72;4943181;28;20105;-94
2023/12/03 03:24:19;;;;;;;12.35;3.30;;;;;;;14.06;46.42;98573.13;4942666;28;20031;-93
2023/12/03 03:26:45;;;;;;;7.90;2.80;;;;;;;14.10;47.68;98587.63;4943440;28;20068;-94
2023/12/03 03:29:10;;;;;;;15.38;3.60;;;;;;;13.90;48.99;98573.53;4959286;28;20102;-92
2023/12/03 03:31:36;;;;;;;11.50;3.03;;;;;;;13.81;50.45;98566.47;4942742;28;20065;-93
2023/12/03 03:34:02;;;;;;;6.82;2.83;;;;;;;13.83;50.83;98581.28;4942054;28;20051;-93
2023/12/03 03:36:28;;;;;;;11.85;3.60;;;;;;;13.67;51.50;98580.84;4942720;28;20142;-95
2023/12/03 03:38:53;;;;;;;9.18;3.33;;;;;;;13.54;51.66;98582.53;4942584;28;20529;-93
2023/12/03 03:41:19;;;;;;;10.13;3.40;;;;;;;13.48;52.31;98596.47;4943537;28;20396;-94
2023/12/03 03:43:45;;;;;;;9.70;3.28;;;;;;;13.44;52.44;98593.59;4942674;28;20034;-94
2023/12/03 03:46:10;;;;;;;12.70;3.00;;;;;;;13.37;53.27;98595.91;4942696;28;20069;-93
2023/12/03 03:48:36;;;;;;;7.90;3.08;;;;;;;13.23;54.17;98590.53;4942426;28;20030;-93
2023/12/03 03:51:01;;;;;;;13.05;4.13;;;;;;;13.22;54.67;98602.44;4943373;28;20054;-94
2023/12/03 03:53:27;;;;;;;11.50;3.45;;;;;;;13.18;54.40;98603.34;4942605;28;20039;-93
2023/12/03 03:55:52;;;;;;;7.93;3.10;;;;;;;13.09;54.91;98600.56;4942805;28;20018;-92
2023/12/03 03:58:18;;;;;;;13.50;3.60;;;;;;;12.92;55.40;98593.88;4943458;28;20031;-93
2023/12/03 04:00:44;;;;;;;6.88;3.15;;;;;;;12.99;55.72;98634.03;4942586;28;20481;-93
2023/12/03 04:03:09;;;;;;;8.65;3.25;;;;;;;12.92;55.84;98633.63;4942539;28;20042;-93
2023/12/03 04:05:35;;;;;;;8.57;3.35;;;;;;;12.87;56.23;98633.75;4942358;28;20023;-93
2023/12/03 04:08:00;;;;;;;11.60;3.65;;;;;;;12.89;55.59;98647.75;4942949;28;20111;-93
2023/12/03 04:10:26;;;;;;;14.90;4.22;;;;;;;12.71;56.12;98617.03;4942792;28;20496;-93
2023/12/03 04:12:51;;;;;;;12.15;3.38;;;;;;;12.68;56.56;98642.75;4942332;28;20039;-95
2023/12/03 04:15:18;;;;;;;10.63;3.85;;;;;;;12.69;56.74;98657.06;4942452;28;20027;-93
2023/12/03 04:17:44;;;;;;;11.60;3.72;;;;;;;12.63;57.03;98650.94;4942720;28;20463;-93
2023/12/03 04:20:11;;;;;;;10.20;4.05;;;;;;;12.44;57.06;98634.84;4942749;28;20035;-95
2023/12/03 04:22:37;;;;;;;12.63;4.28;;;;;;;12.57;55.82;98670.25;4942568;28;20066;-92
2023/12/03 04:25:03;;;;;;;12.15;4.60;;;;;;;12.42;55.77;98647.03;4943006;28;20447;-94
2023/12/03 04:27:28;;;;;;;12.52;4.65;;;;;;;12.52;56.53;98669.25;4943215;28;20033;-94
2023/12/03 04:29:54;;;;;;;10.93;5.25;;;;;;;12.46;56.20;98678.53;4944170;28;20031;-93
2023/12/03 04:32:19;;;;;;;17.38;5.43;;;;;;;12.43;56.10;98676.44;4943398;28;20039;-92
2023/12/03 04:34:45;;;;;;;12.27;5.90;;;;;;;12.38;55.21;98673.03;4942971;28;20047;-93
2023/12/03 04:37:11;;;;;;;8.98;5.53;;;;;;;12.44;55.44;98704.25;4943147;28;20134;-92
2023/12/03 04:39:36;;;;;;;11.07;5.18;;;;;;;12.32;56.03;98694.69;4944433;28;20063;-93
2023/12/03 04:42:02;;;;;;;14.30;5.40;;;;;;;12.36;56.79;98713.81;4944650;28;20117;-94
2023/12/03 04:44:28;;;;;;;13.95;6.00;;;;;;;12.19;57.72;98705.47;4947131;28;20090;-93
2023/12/03 04:46:53;;;;;;;11.75;6.03;;;;;;;12.22;57.80;98732.69;4947682;28;20037;-94
2023/12/03 04:49:19;;;;;;;16.20;6.97;;;;;;;12.13;58.01;98718.25;4947076;28;20416;-94
2023/12/03 04:51:44;;;;;;;19.40;6.82;;;;;;;11.93;58.58;98722.88;4947269;28;20495;-93
2023/12/03 04:54:10;;;;;;;11.50;6.13;;;;;;;11.98;58.25;98724.69;4963147;28;20019;-94
2023/12/03 04:56:36;;;;;;;15.55;6.50;;;;;;;11.99;58.48;98714.69;4947185;28;20038;-94
2023/12/03 04:59:01;;;;;;;14.23;6.25;;;;;;;12.01;58.87;98736.78;4947018;28;20397;-94
2023/12/03 05:01:27;;;;;;;21.02;7.30;;;;;;;12.04;59.01;98752.41;4964551;28;20097;-92
2023/12/03 05:03:52;;;;;;;17.98;6.45;;;;;;;11.97;58.58;98747.34;4946669;28;20117;-95
2023/12/03 05:06:18;;;;;;;17.65;6.00;;;;;;;11.92;58.50;98760.94;4947258;28;20118;-94
2023/12/03 05:08:44;;;;;;;12.13;5.68;;;;;;;11.88;58.19;98768.78;4947292;28;20489;-93
2023/12/03 05:11:09;;;;;;;19.30;5.75;;;;;;;11.95;58.16;98781.13;4963395;28;20448;-94
2023/12/03 05:13:35;;;;;;;12.90;5.85;;;;;;;11.87;58.86;98777.16;4946030;28;20026;-94
2023/12/03 05:16:01;;;;;;;15.07;6.55;;;;;;;11.84;59.35;98769.66;4946034;28;20034;-94
2023/12/03 05:18:27;;;;;;;13.35;6.07;;;;;;;11.71;59.51;98773.88;4946525;28;20035;-94
2023/12/03 05:20:52;;;;;;;16.75;5.75;;;;;;;11.75;59.69;98793.78;4946439;28;20101;-94
2023/12/03 05:23:18;;;;;;;12.18;5.45;;;;;;;11.77;59.35;98801.59;4945509;28;20030;-93
2023/12/03 05:25:43;;;;;;;11.52;6.03;;;;;;;11.66;58.78;98804.41;4946369;28;20140;-94
2023/12/03 05:28:09;;;;;;;18.80;5.95;;;;;;;11.74;59.45;98819.13;4948589;28;20027;-93
2023/12/03 05:30:35;;;;;;;10.18;5.88;;;;;;;11.59;59.58;98811.25;4947144;28;20030;-92
2023/12/03 05:33:00;;;;;;;16.00;5.95;;;;;;;11.62;60.14;98818.75;4945926;28;20022;-93
2023/12/03 05:35:26;;;;;;;16.42;5.47;;;;;;;11.63;60.46;98841.94;4946265;28;20565;-93
2023/12/03 05:37:51;;;;;;;19.08;6.32;;;;;;;11.42;60.41;98814.41;4946800;28;20027;-94
2023/12/03 05:40:18;;;;;;;12.90;6.00;;;;;;;11.50;60.47;98829.97;4946409;28;20034;-93
2023/12/03 05:42:43;;;;;;;18.15;6.45;;;;;;;11.48;60.67;98835.63;4946304;28;20026;-93
2023/12/03 05:45:09;;;;;;;13.35;5.95;;;;;;;11.55;60.93;98854.16;4946116;28;20037;-94
2023/12/03 05:47:35;;;;;;;16.38;6.28;;;;;;;11.56;61.07;98868.44;4945871;28;20501;-94
2023/12/03 05:50:01;;;;;;;16.52;6.72;;;;;;;11.49;61.33;98877.66;4945774;28;20081;-94
2023/12/03 05:52:27;;;;;;;15.25;6.35;;;;;;;11.51;61.17;98872.78;4944957;28;20027;-92
2023/12/03 05:54:53;;;;;;;13.40;7.75;;;;;;;11.46;60.91;98878.25;4944927;28;20045;-94
2023/12/03 05:57:19;;;;;;;17.98;7.15;;;;;;;11.43;60.90;98880.72;4945643;28;20035;-94
2023/12/03 05:59:44;;;;;;;15.27;6.97;;;;;;;11.49;60.91;98909.22;4945974;28;20101;-93
2023/12/03 06:02:10;;;;;;;18.35;7.22;;;;;;;11.39;60.12;98888.56;4946370;28;20030;-93
2023/12/03 06:04:35;;;;;;;16.05;8.55;;;;;;;11.41;58.94;98889.06;4946096;28;20121;-93
2023/12/03 06:07:01;;;;;;;18.67;7.47;;;;;;;11.59;59.35;98917.19;4945112;28;20045;-93
2023/12/03 06:09:27;;;;;;;20.98;8.55;;;;;;;11.60;58.17;98924.22;4945450;28;20027;-96
2023/12/03 06:11:52;;;;;;;18.77;8.15;;;;;;;11.51;58.13;98915.94;4945863;28;20023;-92
2023/12/03 06:14:18;;;;;;;14.93;7.97;;;;;;;11.50;58.13;98919.72;4947848;28;20030;-92
2023/12/03 06:16:43;;;;;;;16.77;8.32;;;;;;;11.49;58.58;98911.91;4945536;28;20077;-96
2023/12/03 06:19:09;;;;;;;21.15;8.45;;;;;;;11.48;58.45;98921.91;4944539;28;20092;-96
2023/12/03 06:21:35;;;;;;;19.00;7.80;;;;;;;11.55;58.58;98932.34;4944616;28;20031;-95
2023/12/03 06:24:00;;;;;;;21.65;7.60;;;;;;;11.43;59.63;98911.16;4944717;28;20113;-93
2023/12/03 06:26:26;;;;;;;17.38;6.47;;;;;;;11.36;58.24;98896.44;4948070;28;20038;-94
2023/12/03 06:28:52;;;;;;;21.52;7.90;;;;;;;11.53;57.39;98913.75;4944903;28;20050;-94
2023/12/03 06:31:17;;;;;;;13.45;6.32;;;;;;;11.62;57.52;98922.03;4944637;28;20408;-94
2023/12/03 06:33:43;;;;;;;16.35;6.28;;;;;;;11.82;57.48;98930.97;4944806;28;20566;-94
2023/12/03 06:36:09;;;;;;;14.13;5.03;;;;;;;11.87;57.20;98936.31;4929999;28;20536;-94
2023/12/03 06:38:36;;;;;;;16.13;5.93;;;;;;;12.02;57.57;98943.47;4929404;28;20029;-93
2023/12/03 06:41:02;;;;;;;27.40;6.18;;;;;;;11.88;57.44;98927.13;4929649;28;20023;-94
2023/12/03 06:43:28;;;;;;;21.10;6.25;;;;;;;12.00;57.41;98959.16;4946451;28;20027;-94
2023/12/03 06:45:53;;;;;;;12.63;6.03;;;;;;;12.13;57.53;98967.31;4929183;28;20033;-94
2023/12/03 06:48:21;;;;;;;18.40;5.75;;;;;;;12.15;57.94;98967.03;4929289;28;20023;-94
2023/12/03 06:50:46;;;;;;;14.48;6.15;;;;;;;12.23;57.79;98984.50;4929411;28;20026;-93
2023/12/03 06:53:12;;;;;;;15.05;6.43;;;;;;;12.23;57.44;98985.31;4929133;28;20464;-93
2023/12/03 06:55:37;;;;;;;10.80;5.03;;;;;;;12.26;56.85;99008.22;4929190;28;20062;-95
2023/12/03 06:58:03;;;;;;;21.05;5.55;;;;;;;12.27;57.43;99018.72;4929941;28;20023;-94
2023/12/03 07:00:29;;;;;;;18.30;5.60;;;;;;;12.34;57.44;99013.75;4928883;28;20027;-93
2023/12/03 07:02:55;;;;;;;15.18;5.25;;;;;;;12.39;57.41;99009.41;4929214;28;20481;-94
2023/12/03 07:05:21;;;;;;;18.77;5.05;;;;;;;12.32;57.41;99009.75;4928711;28;20053;-94
2023/12/03 07:07:50;;;;;;;9.63;5.07;;;;;;;12.38;57.81;99026.69;4928739;28;20031;-93
2023/12/03 07:10:16;;;;;;;21.35;8.25;;;;;;;12.36;58.03;99018.09;4929594;28;20030;-95
2023/12/03 07:12:42;;;;;;;11.77;5.72;;;;;;;12.32;57.67;99010.53;4927771;28;20377;-94
2023/12/03 07:15:08;;;;;;;18.38;7.55;;;;;;;12.38;58.00;99024.81;4927864;28;20027;-94
2023/12/03 07:17:33;;;;;;;9.88;5.35;;;;;;;12.45;58.05;99037.94;4928498;28;20033;-94
2023/12/03 07:19:59;;;;;;;11.73;5.78;;;;;;;12.49;58.46;99047.91;4929064;28;20073;-94
2023/12/03 07:22:24;;;;;;;11.82;5.70;;;;;;;12.49;58.40;99049.78;4928088;28;20085;-94
2023/12/03 07:24:50;;;;;;;9.50;4.55;;;;;;;12.47;58.66;99051.97;4928348;28;20072;-92
2023/12/03 07:27:16;;;;;;;10.57;4.90;;;;;;;12.58;58.09;99064.25;4928292;28;20019;-95
2023/12/03 07:29:42;;;;;;;8.25;4.95;;;;;;;12.60;58.55;99062.06;4928127;28;20022;-93
2023/12/03 07:32:08;;;;;;;22.33;12.80;;;;;;;12.74;58.47;99087.28;4928179;28;20054;-94
2023/12/03 07:34:33;;;;;;;12.73;5.10;;;;;;;12.83;58.13;99094.75;4927341;28;20117;-94
2023/12/03 07:36:59;;;;;;;14.85;5.63;;;;;;;12.70;58.57;99085.44;4943853;28;20023;-93
2023/12/03 07:39:25;;;;;;;11.73;5.20;;;;;;;12.66;58.03;99079.03;4943512;28;20023;-93
2023/12/03 07:41:54;;;;;;;15.07;6.30;;;;;;;12.78;58.36;99084.00;4943900;28;20109;-94
2023/12/03 07:44:21;;;;;;;10.13;5.43;;;;;;;12.70;58.71;99067.34;4960203;28;20023;-95
2023/12/03 07:49:29;;;;;;;11.07;5.13;;;;;;;12.84;58.07;99078.22;5153630;23;20068;-95
2023/12/03 07:51:55;;;;;;;7.65;4.57;;;;;;;12.77;57.82;99077.00;4967116;28;20026;-94
2023/12/03 07:54:21;;;;;;;9.30;4.70;;;;;;;12.78;58.12;99073.97;4982065;28;20026;-93
2023/12/03 07:56:46;;;;;;;12.25;4.80;;;;;;;12.87;57.68;99091.16;4965646;28;20084;-93
2023/12/03 07:59:12;;;;;;;11.73;5.55;;;;;;;12.89;57.78;99086.28;4966521;28;20041;-93
2023/12/03 08:01:38;;;;;;;11.23;4.18;;;;;;;13.02;57.52;99113.69;4967669;28;20021;-95
2023/12/03 08:04:07;;;;;;;11.05;5.45;;;;;;;13.07;57.93;99110.91;4966857;28;20053;-95
2023/12/03 08:06:32;;;;;;;11.15;7.00;;;;;;;13.03;58.08;99104.47;4968127;28;20033;-95
2023/12/03 08:08:58;;;;;;;9.55;5.20;;;;;;;12.90;58.93;99090.56;4965587;28;20472;-93
2023/12/03 08:11:24;;;;;;;19.15;5.45;;;;;;;12.96;58.83;99109.44;4966356;28;20026;-95
2023/12/03 08:13:50;;;;;;;9.50;4.20;;;;;;;13.02;58.14;99105.56;4965381;28;20030;-95
2023/12/03 08:16:16;;;;;;;7.15;3.90;;;;;;;12.87;58.59;99112.78;4965777;28;20111;-95
2023/12/03 08:18:42;;;;;;;6.10;3.83;;;;;;;12.95;58.39;99119.47;4967695;28;20026;-95
2023/12/03 08:21:09;;;;;;;7.35;4.05;;;;;;;13.03;58.96;99147.72;4970083;28;20111;-95
2023/12/03 08:23:35;;;;;;;9.32;4.30;;;;;;;12.91;59.43;99126.53;4971944;28;20093;-94
2023/12/03 08:26:02;;;;;;;6.13;3.60;;;;;;;12.83;59.51;99133.38;4970560;28;20017;-96
2023/12/03 08:28:28;;;;;;;6.78;4.03;;;;;;;12.82;59.43;99133.66;4969855;28;20045;-93
2023/12/03 08:30:54;;;;;;;8.38;3.85;;;;;;;12.72;59.79;99146.22;4969312;28;20025;-94
2023/12/03 08:33:19;;;;;;;8.02;3.72;;;;;;;12.76;60.27;99142.91;4970753;28;20021;-94
2023/12/03 08:35:45;;;;;;;11.85;5.55;;;;;;;12.73;60.11;99137.00;4973216;28;20026;-93
2023/12/03 08:38:11;;;;;;;9.68;4.00;;;;;;;12.81;59.64;99123.97;4985226;28;20030;-91
2023/12/03 08:40:37;;;;;;;6.97;3.80;;;;;;;13.01;59.90;99147.19;4986677;28;20069;-92
2023/12/03 08:43:03;;;;;;;7.30;3.72;;;;;;;13.02;59.61;99155.03;4969358;28;20036;-93
2023/12/03 08:45:32;;;;;;;9.73;4.00;;;;;;;13.05;59.32;99142.81;4986072;28;20101;-92
2023/12/03 08:48:00;;;;;;;7.20;3.97;;;;;;;13.14;58.53;99160.81;4970857;28;20512;-93
2023/12/03 08:50:31;;;;;;;7.57;4.00;;;;;;;13.20;58.36;99163.44;4970500;28;20118;-93
2023/12/03 08:52:57;;;;;;;8.32;3.63;;;;;;;13.18;58.22;99162.91;5001329;28;20112;-92
2023/12/03 08:55:23;;;;;;;6.47;3.70;;;;;;;13.38;57.58;99188.94;4985490;28;20038;-92
2023/12/03 08:57:49;;;;;;;6.00;3.08;;;;;;;13.29;56.85;99183.38;4985506;28;20104;-93
2023/12/03 09:00:16;;;;;;;9.35;3.60;;;;;;;13.29;56.85;99194.97;4985355;28;20109;-92
2023/12/03 09:02:45;;;;;;;9.45;3.72;;;;;;;13.15;57.46;99167.03;4969401;28;20032;-93
2023/12/03 09:05:11;;;;;;;7.57;4.22;;;;;;;13.20;57.45;99177.78;4969190;28;20034;-93
2023/12/03 09:07:37;;;;;;;8.25;3.85;;;;;;;13.26;57.15;99173.09;4968979;28;20484;-93
2023/12/03 09:10:04;;;;;;;8.13;3.35;;;;;;;13.34;55.80;99197.63;4969688;28;20068;-93
2023/12/03 09:12:30;;;;;;;5.30;3.50;;;;;;;13.14;55.98;99160.81;4984785;28;20080;-93
2023/12/03 09:14:56;;;;;;;6.70;3.25;;;;;;;13.19;56.16;99164.53;4971083;28;20467;-92
2023/12/03 09:17:22;;;;;;;9.88;3.97;;;;;;;13.19;56.12;99145.63;4968790;28;20109;-93
2023/12/03 09:19:49;;;;;;;9.60;3.75;;;;;;;13.21;56.93;99159.66;4969379;28;20029;-92
2023/12/03 09:22:15;;;;;;;7.95;3.17;;;;;;;13.30;56.04;99164.16;4985441;28;20080;-93
2023/12/03 09:24:41;;;;;;;10.95;3.55;;;;;;;13.32;56.05;99166.56;4969125;28;20483;-93
2023/12/03 09:27:07;;;;;;;10.27;4.07;;;;;;;13.35;55.52;99174.09;4968883;28;20029;-93
2023/12/03 09:29:33;;;;;;;7.10;3.85;;;;;;;13.38;55.37;99181.63;4984664;28;20459;-95
2023/12/03 09:31:59;;;;;;;8.45;4.40;;;;;;;13.38;55.07;99173.50;4968628;28;20026;-95
2023/12/03 09:34:25;;;;;;;12.10;4.45;;;;;;;13.48;55.41;99180.66;4965407;28;20033;-94
2023/12/03 09:36:51;;;;;;;8.32;3.88;;;;;;;13.39;54.21;99167.00;4964645;28;20041;-93
2023/12/03 09:39:17;;;;;;;11.40;4.00;;;;;;;13.49;54.52;99171.47;4964622;28;20045;-93
2023/12/03 09:41:52;;;;;;;10.60;4.45;;;;;;;13.41;53.87;99170.22;4964766;28;20177;-92
2023/12/03 09:44:41;;;;;;;7.22;3.95;;;;;;;13.48;53.61;99176.06;4981051;28;20033;-93
2023/12/03 09:47:08;;;;;;;6.20;3.42;;;;;;;13.49;53.60;99185.00;4996744;28;20050;-93
2023/12/03 09:49:57;;;;;;;9.90;6.25;;;;;;;13.41;53.45;99186.44;4981641;28;20057;-95
2023/12/03 09:52:25;;;;;;;7.70;3.67;;;;;;;13.42;53.10;99182.63;4960390;28;20318;-92
2023/12/03 09:54:51;;;;;;;8.00;3.40;;;;;;;13.38;52.79;99181.63;4960437;28;20038;-93
2023/12/03 09:57:17;;;;;;;7.22;3.45;;;;;;;13.42;53.31;99211.59;4944221;28;20098;-91
2023/12/03 09:59:47;;;;;;;5.40;3.28;;;;;;;13.48;52.25;99210.44;4977560;28;20037;-93
2023/12/03 10:02:13;;;;;;;6.78;3.08;;;;;;;13.43;51.58;99211.31;4944279;28;20034;-93
2023/12/03 10:04:39;;;;;;;7.82;3.70;;;;;;;13.44;52.21;99207.50;4959013;28;20026;-93
2023/12/03 10:07:06;;;;;;;6.68;3.33;;;;;;;13.33;52.23;99211.44;4976401;28;20082;-92
2023/12/03 10:09:31;;;;;;;7.78;3.75;;;;;;;13.26;52.66;99224.47;4945543;28;20037;-92
2023/12/03 10:12:00;;;;;;;7.97;3.17;;;;;;;13.14;52.44;99224.91;4962477;28;20038;-91
2023/12/03 10:14:28;;;;;;;6.78;3.28;;;;;;;13.12;53.13;99235.19;4963131;28;20026;-92
2023/12/03 10:16:55;;;;;;;6.10;3.58;;;;;;;12.85;53.97;99230.38;4984255;28;20026;-90
2023/12/03 10:19:25;;;;;;;4.30;2.92;;;;;;;12.71;54.15;99236.44;4975892;28;20041;-92
2023/12/03 10:21:51;;;;;;;8.70;3.78;;;;;;;12.71;54.07;99247.25;4944094;28;20154;-92
2023/12/03 10:24:18;;;;;;;6.95;3.88;;;;;;;12.78;54.22;99249.59;4965237;28;20042;-92
2023/12/03 10:26:51;;;;;;;28.65;17.90;;;;;;;12.58;54.77;99242.53;4966906;28;20392;-91
2023/12/03 10:29:23;;;;;;;13.88;9.35;;;;;;;12.68;54.74;99263.22;4984933;28;20018;-92
2023/12/03 10:31:52;;;;;;;7.53;4.90;;;;;;;12.76;54.95;99268.00;4984869;28;20034;-90
2023/12/03 10:34:21;;;;;;;6.55;3.30;;;;;;;12.47;55.31;99249.91;4967531;28;20025;-90
2023/12/03 10:36:47;;;;;;;5.38;3.30;;;;;;;12.18;56.49;99241.78;4984534;28;20038;-93
2023/12/03 10:39:17;;;;;;;7.70;3.58;;;;;;;12.30;56.64;99260.31;4966440;28;20040;-91
2023/12/03 10:41:49;;;;;;;5.95;4.20;;;;;;;12.07;57.48;99241.03;4982997;28;20044;-92
2023/12/03 10:44:24;;;;;;;;;;;;;;;12.12;57.00;99259.91;4969089;28;20056;-92
2023/12/03 10:46:53;;;;;;;4.95;3.33;;;;;;;11.96;57.27;99246.81;4999819;28;19968;-92
2023/12/03 10:49:19;;;;;;;7.53;3.38;;;;;;;12.03;57.17;99277.78;4967111;28;20050;-92
2023/12/03 10:51:46;;;;;;;5.97;3.38;;;;;;;11.86;56.99;99255.75;4983011;28;20083;-91
2023/12/03 10:54:12;;;;;;;6.25;3.40;;;;;;;11.73;57.09;99257.19;4967865;28;20029;-91
2023/12/03 10:56:39;;;;;;;6.57;3.20;;;;;;;11.69;57.29;99264.22;4987077;28;20116;-95
2023/12/03 10:59:09;;;;;;;6.35;3.17;;;;;;;11.69;56.98;99272.31;4971720;28;20010;-96
2023/12/03 11:01:42;;;;;;;6.72;3.63;;;;;;;11.61;57.61;99257.50;4973920;28;20021;-96
2023/12/03 11:04:34;;;;;;;13.52;3.78;;;;;;;11.87;57.85;99297.81;4991562;28;20089;-96
2023/12/03 11:06:59;;;;;;;;;;;;;;;11.85;57.20;99299.97;5007686;28;20057;-95
2023/12/03 11:09:26;;;;;;;5.75;3.47;;;;;;;11.84;56.74;99293.78;5010804;28;19909;-96
2023/12/03 11:12:03;;;;;;;5.38;3.58;;;;;;;11.80;56.29;99295.41;4992611;28;20037;-96
2023/12/03 11:14:38;;;;;;;6.65;3.83;;;;;;;11.59;55.50;99294.72;4979724;28;20056;-96
2023/12/03 11:17:13;;;;;;;5.60;2.92;;;;;;;11.56;54.71;99284.50;4980335;28;20033;-96
2023/12/03 11:19:44;;;;;;;6.18;2.80;;;;;;;11.57;54.16;99318.47;4993908;28;20030;-96
2023/12/03 11:22:37;;;;;;;5.57;3.13;;;;;;;11.56;52.56;99310.63;4975272;28;20472;-96
2023/12/03 11:25:29;;;;;;;9.02;4.05;;;;;;;11.57;53.20;99317.66;5018266;28;20098;-95
2023/12/03 11:27:57;;;;;;;5.00;3.30;;;;;;;11.25;53.25;99289.22;5004638;28;20045;-96